sensor_id;sensor_type;location;lat;lon;timestamp;temperature;humidity
19755;DHT22;10036;47.812;9.274;2024-03-02T00:00:14;5.00;99.90
19755;DHT22;10036;47.812;9.274;2024-03-02T00:02:42;5.00;99.90
19755;DHT22;10036;47.812;9.274;2024-03-02T00:05:12;5.10;99.90
19755;DHT22;10036;47.812;9.274;2024-03-02T00:07:41;5.20;99.90
19755;DHT22;10036;47.812;9.274;2024-03-02T00:10:09;5.20;99.90
19755;DHT22;10036;47.812;9.274;2024-03-02T00:12:37;5.20;99.90
19755;DHT22;10036;47.812;9.274;2024-03-02T00:15:05;5.30;99.90
19755;DHT22;10036;47.812;9.274;2024-03-02T00:17:33;5.30;99.90
19755;DHT22;10036;47.812;9.274;2024-03-02T00:20:00;5.40;99.90
19755;DHT22;10036;47.812;9.274;2024-03-02T00:22:29;5.40;99.90
19755;DHT22;10036;47.812;9.274;2024-03-02T00:24:56;5.30;99.90
19755;DHT22;10036;47.812;9.274;2024-03-02T00:27:23;5.30;99.90
19755;DHT22;10036;47.812;9.274;2024-03-02T00:29:50;5.20;99.90
19755;DHT22;10036;47.812;9.274;2024-03-02T00:32:17;5.20;99.90
19755;DHT22;10036;47.812;9.274;2024-03-02T00:34:44;5.20;99.90
19755;DHT22;10036;47.812;9.274;2024-03-02T00:37:14;5.20;99.90
19755;DHT22;10036;47.812;9.274;2024-03-02T00:39:42;5.20;99.90
19755;DHT22;10036;47.812;9.274;2024-03-02T00:42:10;5.20;99.90
19755;DHT22;10036;47.812;9.274;2024-03-02T00:44:38;5.00;99.90
19755;DHT22;10036;47.812;9.274;2024-03-02T00:47:05;4.80;99.90
19755;DHT22;10036;47.812;9.274;2024-03-02T00:49:33;4.80;99.90
19755;DHT22;10036;47.812;9.274;2024-03-02T00:52:00;4.70;99.90
19755;DHT22;10036;47.812;9.274;2024-03-02T00:54:27;4.70;99.90
19755;DHT22;10036;47.812;9.274;2024-03-02T00:56:56;4.70;99.90
19755;DHT22;10036;47.812;9.274;2024-03-02T00:59:23;4.70;99.90
19755;DHT22;10036;47.812;9.274;2024-03-02T01:01:50;4.80;99.90
19755;DHT22;10036;47.812;9.274;2024-03-02T01:04:17;4.80;99.90
19755;DHT22;10036;47.812;9.274;2024-03-02T01:06:44;4.90;99.90
19755;DHT22;10036;47.812;9.274;2024-03-02T01:09:11;5.00;99.90
19755;DHT22;10036;47.812;9.274;2024-03-02T01:11:39;5.00;99.90
19755;DHT22;10036;47.812;9.274;2024-03-02T01:14:07;5.00;99.90
19755;DHT22;10036;47.812;9.274;2024-03-02T01:16:34;5.10;99.90
19755;DHT22;10036;47.812;9.274;2024-03-02T01:19:01;5.20;99.90
19755;DHT22;10036;47.812;9.274;2024-03-02T01:21:28;5.20;99.90
19755;DHT22;10036;47.812;9.274;2024-03-02T01:23:55;5.20;99.90
19755;DHT22;10036;47.812;9.274;2024-03-02T01:26:22;5.30;99.90
19755;DHT22;10036;47.812;9.274;2024-03-02T01:28:48;5.20;99.90
19755;DHT22;10036;47.812;9.274;2024-03-02T01:31:17;5.20;99.90
19755;DHT22;10036;47.812;9.274;2024-03-02T01:33:43;5.20;99.90
19755;DHT22;10036;47.812;9.274;2024-03-02T01:36:10;5.10;99.90
19755;DHT22;10036;47.812;9.274;2024-03-02T01:38:37;5.00;99.90
19755;DHT22;10036;47.812;9.274;2024-03-02T01:41:04;5.00;99.90
19755;DHT22;10036;47.812;9.274;2024-03-02T01:43:31;4.90;99.90
19755;DHT22;10036;47.812;9.274;2024-03-02T01:45:58;4.90;99.90
19755;DHT22;10036;47.812;9.274;2024-03-02T01:48:26;5.00;99.90
19755;DHT22;10036;47.812;9.274;2024-03-02T01:50:53;4.90;99.90
19755;DHT22;10036;47.812;9.274;2024-03-02T01:53:20;4.90;99.90
19755;DHT22;10036;47.812;9.274;2024-03-02T01:55:46;5.00;99.90
19755;DHT22;10036;47.812;9.274;2024-03-02T01:58:13;5.00;99.90
19755;DHT22;10036;47.812;9.274;2024-03-02T02:00:40;4.90;99.90
19755;DHT22;10036;47.812;9.274;2024-03-02T02:03:07;4.80;99.90
19755;DHT22;10036;47.812;9.274;2024-03-02T02:05:36;4.80;99.90
19755;DHT22;10036;47.812;9.274;2024-03-02T02:08:03;4.90;99.90
19755;DHT22;10036;47.812;9.274;2024-03-02T02:10:31;4.90;99.90
19755;DHT22;10036;47.812;9.274;2024-03-02T02:12:57;4.90;99.90
19755;DHT22;10036;47.812;9.274;2024-03-02T02:15:25;4.90;99.90
19755;DHT22;10036;47.812;9.274;2024-03-02T02:17:52;4.80;99.90
19755;DHT22;10036;47.812;9.274;2024-03-02T02:20:19;4.60;99.90
19755;DHT22;10036;47.812;9.274;2024-03-02T02:22:56;4.60;99.90
19755;DHT22;10036;47.812;9.274;2024-03-02T02:25:23;4.50;99.90
19755;DHT22;10036;47.812;9.274;2024-03-02T02:27:50;4.40;99.90
19755;DHT22;10036;47.812;9.274;2024-03-02T02:30:19;4.40;99.90
19755;DHT22;10036;47.812;9.274;2024-03-02T02:32:46;4.40;99.90
19755;DHT22;10036;47.812;9.274;2024-03-02T02:35:13;4.30;99.90
19755;DHT22;10036;47.812;9.274;2024-03-02T02:37:40;4.40;99.90
19755;DHT22;10036;47.812;9.274;2024-03-02T02:40:10;4.40;99.90
19755;DHT22;10036;47.812;9.274;2024-03-02T02:42:36;4.40;99.90
19755;DHT22;10036;47.812;9.274;2024-03-02T02:45:04;4.40;99.90
19755;DHT22;10036;47.812;9.274;2024-03-02T02:47:31;4.40;99.90
19755;DHT22;10036;47.812;9.274;2024-03-02T02:50:00;4.50;99.90
19755;DHT22;10036;47.812;9.274;2024-03-02T02:52:31;4.40;99.90
19755;DHT22;10036;47.812;9.274;2024-03-02T02:55:01;4.30;99.90
19755;DHT22;10036;47.812;9.274;2024-03-02T02:57:29;4.10;99.90
19755;DHT22;10036;47.812;9.274;2024-03-02T03:00:00;4.10;99.90
19755;DHT22;10036;47.812;9.274;2024-03-02T03:02:36;4.20;99.90
19755;DHT22;10036;47.812;9.274;2024-03-02T03:05:03;4.10;99.90
19755;DHT22;10036;47.812;9.274;2024-03-02T03:07:31;4.10;99.90
19755;DHT22;10036;47.812;9.274;2024-03-02T03:09:58;3.80;99.90
19755;DHT22;10036;47.812;9.274;2024-03-02T03:12:25;3.70;99.90
19755;DHT22;10036;47.812;9.274;2024-03-02T03:14:53;3.80;99.90
19755;DHT22;10036;47.812;9.274;2024-03-02T03:17:21;3.80;99.90
19755;DHT22;10036;47.812;9.274;2024-03-02T03:19:48;3.90;99.90
19755;DHT22;10036;47.812;9.274;2024-03-02T03:22:15;3.90;99.90
19755;DHT22;10036;47.812;9.274;2024-03-02T03:24:42;3.90;99.90
19755;DHT22;10036;47.812;9.274;2024-03-02T03:27:09;3.80;99.90
19755;DHT22;10036;47.812;9.274;2024-03-02T03:29:36;3.80;99.90
19755;DHT22;10036;47.812;9.274;2024-03-02T03:32:06;3.80;99.90
19755;DHT22;10036;47.812;9.274;2024-03-02T03:34:33;3.90;99.90
19755;DHT22;10036;47.812;9.274;2024-03-02T03:37:00;3.90;99.90
19755;DHT22;10036;47.812;9.274;2024-03-02T03:39:27;3.90;99.90
19755;DHT22;10036;47.812;9.274;2024-03-02T03:41:54;3.80;99.90
19755;DHT22;10036;47.812;9.274;2024-03-02T03:44:21;3.60;99.90
19755;DHT22;10036;47.812;9.274;2024-03-02T03:46:48;3.40;99.90
19755;DHT22;10036;47.812;9.274;2024-03-02T03:49:16;3.50;99.90
19755;DHT22;10036;47.812;9.274;2024-03-02T03:51:43;3.50;99.90
19755;DHT22;10036;47.812;9.274;2024-03-02T03:54:09;3.70;99.90
19755;DHT22;10036;47.812;9.274;2024-03-02T03:56:37;3.70;99.90
19755;DHT22;10036;47.812;9.274;2024-03-02T03:59:04;3.60;99.90
19755;DHT22;10036;47.812;9.274;2024-03-02T04:01:31;3.70;99.90
19755;DHT22;10036;47.812;9.274;2024-03-02T04:03:59;3.70;99.90
19755;DHT22;10036;47.812;9.274;2024-03-02T04:06:28;3.70;99.90
19755;DHT22;10036;47.812;9.274;2024-03-02T04:08:55;3.80;99.90
19755;DHT22;10036;47.812;9.274;2024-03-02T04:11:22;3.70;99.90
19755;DHT22;10036;47.812;9.274;2024-03-02T04:13:49;3.60;99.90
19755;DHT22;10036;47.812;9.274;2024-03-02T04:16:16;3.70;99.90
19755;DHT22;10036;47.812;9.274;2024-03-02T04:18:43;3.80;99.90
19755;DHT22;10036;47.812;9.274;2024-03-02T04:21:10;3.80;99.90
19755;DHT22;10036;47.812;9.274;2024-03-02T04:23:38;3.70;99.90
19755;DHT22;10036;47.812;9.274;2024-03-02T04:26:05;3.70;99.90
19755;DHT22;10036;47.812;9.274;2024-03-02T04:28:32;3.50;99.90
19755;DHT22;10036;47.812;9.274;2024-03-02T04:30:58;3.40;99.90
19755;DHT22;10036;47.812;9.274;2024-03-02T04:33:25;3.40;99.90
19755;DHT22;10036;47.812;9.274;2024-03-02T04:35:52;3.30;99.90
19755;DHT22;10036;47.812;9.274;2024-03-02T04:38:19;3.20;99.90
19755;DHT22;10036;47.812;9.274;2024-03-02T04:40:47;3.20;99.90
19755;DHT22;10036;47.812;9.274;2024-03-02T04:43:14;3.20;99.90
19755;DHT22;10036;47.812;9.274;2024-03-02T04:45:42;3.20;99.90
19755;DHT22;10036;47.812;9.274;2024-03-02T04:48:09;3.20;99.90
19755;DHT22;10036;47.812;9.274;2024-03-02T04:50:36;3.20;99.90
19755;DHT22;10036;47.812;9.274;2024-03-02T04:53:03;3.20;99.90
19755;DHT22;10036;47.812;9.274;2024-03-02T04:55:30;3.40;99.90
19755;DHT22;10036;47.812;9.274;2024-03-02T04:58:23;3.50;99.90
19755;DHT22;10036;47.812;9.274;2024-03-02T05:00:50;3.60;99.90
19755;DHT22;10036;47.812;9.274;2024-03-02T05:03:17;3.60;99.90
19755;DHT22;10036;47.812;9.274;2024-03-02T05:05:44;3.70;99.90
19755;DHT22;10036;47.812;9.274;2024-03-02T05:08:11;3.70;99.90
19755;DHT22;10036;47.812;9.274;2024-03-02T05:10:38;3.70;99.90
19755;DHT22;10036;47.812;9.274;2024-03-02T05:13:04;3.80;99.90
19755;DHT22;10036;47.812;9.274;2024-03-02T05:15:33;3.90;99.90
19755;DHT22;10036;47.812;9.274;2024-03-02T05:17:58;3.90;99.90
19755;DHT22;10036;47.812;9.274;2024-03-02T05:20:28;3.90;99.90
19755;DHT22;10036;47.812;9.274;2024-03-02T05:22:55;3.90;99.90
19755;DHT22;10036;47.812;9.274;2024-03-02T05:25:21;3.90;99.90
19755;DHT22;10036;47.812;9.274;2024-03-02T05:27:48;4.00;99.90
19755;DHT22;10036;47.812;9.274;2024-03-02T05:30:15;4.10;99.90
19755;DHT22;10036;47.812;9.274;2024-03-02T05:32:43;4.20;99.90
19755;DHT22;10036;47.812;9.274;2024-03-02T05:35:10;4.10;99.90
19755;DHT22;10036;47.812;9.274;2024-03-02T05:37:38;4.10;99.90
19755;DHT22;10036;47.812;9.274;2024-03-02T05:40:06;4.10;99.90
19755;DHT22;10036;47.812;9.274;2024-03-02T05:42:33;4.10;99.90
19755;DHT22;10036;47.812;9.274;2024-03-02T05:45:00;4.10;99.90
19755;DHT22;10036;47.812;9.274;2024-03-02T05:47:27;4.10;99.90
19755;DHT22;10036;47.812;9.274;2024-03-02T05:49:55;4.10;99.90
19755;DHT22;10036;47.812;9.274;2024-03-02T05:52:22;4.10;99.90
19755;DHT22;10036;47.812;9.274;2024-03-02T05:54:49;4.00;99.90
19755;DHT22;10036;47.812;9.274;2024-03-02T05:57:16;4.00;99.90
19755;DHT22;10036;47.812;9.274;2024-03-02T05:59:57;4.00;99.90
19755;DHT22;10036;47.812;9.274;2024-03-02T06:02:24;4.00;99.90
19755;DHT22;10036;47.812;9.274;2024-03-02T06:04:53;3.90;99.90
19755;DHT22;10036;47.812;9.274;2024-03-02T06:07:21;3.90;99.90
19755;DHT22;10036;47.812;9.274;2024-03-02T06:09:48;3.90;99.90
19755;DHT22;10036;47.812;9.274;2024-03-02T06:12:16;3.90;99.90
19755;DHT22;10036;47.812;9.274;2024-03-02T06:14:44;3.90;99.90
19755;DHT22;10036;47.812;9.274;2024-03-02T06:17:11;4.00;99.90
19755;DHT22;10036;47.812;9.274;2024-03-02T06:19:38;4.00;99.90
19755;DHT22;10036;47.812;9.274;2024-03-02T06:22:04;4.00;99.90
19755;DHT22;10036;47.812;9.274;2024-03-02T06:24:33;3.90;99.90
19755;DHT22;10036;47.812;9.274;2024-03-02T06:26:59;3.90;99.90
19755;DHT22;10036;47.812;9.274;2024-03-02T06:29:26;3.80;99.90
19755;DHT22;10036;47.812;9.274;2024-03-02T06:31:53;3.90;99.90
19755;DHT22;10036;47.812;9.274;2024-03-02T06:34:20;3.90;99.90
19755;DHT22;10036;47.812;9.274;2024-03-02T06:36:47;3.90;99.90
19755;DHT22;10036;47.812;9.274;2024-03-02T06:39:14;3.90;99.90
19755;DHT22;10036;47.812;9.274;2024-03-02T06:41:42;4.00;99.90
19755;DHT22;10036;47.812;9.274;2024-03-02T06:44:09;4.00;99.90
19755;DHT22;10036;47.812;9.274;2024-03-02T06:46:36;4.00;99.90
19755;DHT22;10036;47.812;9.274;2024-03-02T06:49:02;4.10;99.90
19755;DHT22;10036;47.812;9.274;2024-03-02T06:51:30;4.20;99.90
19755;DHT22;10036;47.812;9.274;2024-03-02T06:53:57;4.20;99.90
19755;DHT22;10036;47.812;9.274;2024-03-02T06:56:25;4.20;99.90
19755;DHT22;10036;47.812;9.274;2024-03-02T06:58:53;4.20;99.90
19755;DHT22;10036;47.812;9.274;2024-03-02T07:01:20;4.40;99.90
19755;DHT22;10036;47.812;9.274;2024-03-02T07:03:47;4.30;99.90
19755;DHT22;10036;47.812;9.274;2024-03-02T07:06:14;4.30;99.90
19755;DHT22;10036;47.812;9.274;2024-03-02T07:08:41;4.40;99.90
19755;DHT22;10036;47.812;9.274;2024-03-02T07:11:07;4.40;99.90
19755;DHT22;10036;47.812;9.274;2024-03-02T07:13:35;4.40;99.90
19755;DHT22;10036;47.812;9.274;2024-03-02T07:16:04;4.40;99.90
19755;DHT22;10036;47.812;9.274;2024-03-02T07:18:53;4.40;99.90
19755;DHT22;10036;47.812;9.274;2024-03-02T07:21:21;4.40;99.90
19755;DHT22;10036;47.812;9.274;2024-03-02T07:23:48;4.40;99.90
19755;DHT22;10036;47.812;9.274;2024-03-02T07:26:16;4.40;99.90
19755;DHT22;10036;47.812;9.274;2024-03-02T07:28:44;4.40;99.90
19755;DHT22;10036;47.812;9.274;2024-03-02T07:31:12;4.50;99.90
19755;DHT22;10036;47.812;9.274;2024-03-02T07:33:39;4.40;99.90
19755;DHT22;10036;47.812;9.274;2024-03-02T07:36:06;4.50;99.90
19755;DHT22;10036;47.812;9.274;2024-03-02T07:38:33;4.50;99.90
19755;DHT22;10036;47.812;9.274;2024-03-02T07:41:01;4.60;99.90
19755;DHT22;10036;47.812;9.274;2024-03-02T07:43:28;4.60;99.90
19755;DHT22;10036;47.812;9.274;2024-03-02T07:45:55;4.60;99.90
19755;DHT22;10036;47.812;9.274;2024-03-02T07:48:24;4.70;99.90
19755;DHT22;10036;47.812;9.274;2024-03-02T07:50:51;4.50;99.90
19755;DHT22;10036;47.812;9.274;2024-03-02T07:53:17;4.60;99.90
19755;DHT22;10036;47.812;9.274;2024-03-02T07:55:44;4.60;99.90
19755;DHT22;10036;47.812;9.274;2024-03-02T07:58:11;4.70;99.90
19755;DHT22;10036;47.812;9.274;2024-03-02T08:00:39;4.70;99.90
19755;DHT22;10036;47.812;9.274;2024-03-02T08:03:06;4.80;99.90
19755;DHT22;10036;47.812;9.274;2024-03-02T08:05:38;4.80;99.90
19755;DHT22;10036;47.812;9.274;2024-03-02T08:08:05;4.90;99.90
19755;DHT22;10036;47.812;9.274;2024-03-02T08:10:32;4.90;99.90
19755;DHT22;10036;47.812;9.274;2024-03-02T08:12:59;4.80;99.90
19755;DHT22;10036;47.812;9.274;2024-03-02T08:15:26;4.80;99.90
19755;DHT22;10036;47.812;9.274;2024-03-02T08:17:53;4.70;99.90
19755;DHT22;10036;47.812;9.274;2024-03-02T08:20:21;4.70;99.90
19755;DHT22;10036;47.812;9.274;2024-03-02T08:22:50;4.70;99.90
19755;DHT22;10036;47.812;9.274;2024-03-02T08:25:17;4.80;99.90
19755;DHT22;10036;47.812;9.274;2024-03-02T08:27:44;4.90;99.90
19755;DHT22;10036;47.812;9.274;2024-03-02T08:30:12;4.80;99.90
19755;DHT22;10036;47.812;9.274;2024-03-02T08:32:39;4.70;99.90
19755;DHT22;10036;47.812;9.274;2024-03-02T08:35:07;4.90;99.90
19755;DHT22;10036;47.812;9.274;2024-03-02T08:37:34;4.90;99.90
19755;DHT22;10036;47.812;9.274;2024-03-02T08:40:02;4.90;99.90
19755;DHT22;10036;47.812;9.274;2024-03-02T08:42:32;4.90;99.90
19755;DHT22;10036;47.812;9.274;2024-03-02T08:45:00;5.10;99.90
19755;DHT22;10036;47.812;9.274;2024-03-02T08:47:28;5.30;99.90
19755;DHT22;10036;47.812;9.274;2024-03-02T08:49:55;5.40;99.90
19755;DHT22;10036;47.812;9.274;2024-03-02T08:52:22;5.50;99.90
19755;DHT22;10036;47.812;9.274;2024-03-02T08:54:49;5.40;99.90
19755;DHT22;10036;47.812;9.274;2024-03-02T08:57:17;5.30;99.90
19755;DHT22;10036;47.812;9.274;2024-03-02T08:59:44;5.40;99.90
19755;DHT22;10036;47.812;9.274;2024-03-02T09:02:11;5.30;99.90
19755;DHT22;10036;47.812;9.274;2024-03-02T09:04:38;5.30;99.90
19755;DHT22;10036;47.812;9.274;2024-03-02T09:07:05;5.70;99.90
19755;DHT22;10036;47.812;9.274;2024-03-02T09:09:32;5.60;99.90
19755;DHT22;10036;47.812;9.274;2024-03-02T09:11:59;5.70;99.90
19755;DHT22;10036;47.812;9.274;2024-03-02T09:14:28;5.60;99.90
19755;DHT22;10036;47.812;9.274;2024-03-02T09:16:55;5.70;99.90
19755;DHT22;10036;47.812;9.274;2024-03-02T09:19:21;5.70;99.90
19755;DHT22;10036;47.812;9.274;2024-03-02T09:21:48;5.70;99.90
19755;DHT22;10036;47.812;9.274;2024-03-02T09:24:15;5.90;99.90
19755;DHT22;10036;47.812;9.274;2024-03-02T09:26:42;6.00;99.90
19755;DHT22;10036;47.812;9.274;2024-03-02T09:29:09;6.20;99.90
19755;DHT22;10036;47.812;9.274;2024-03-02T09:31:40;6.40;99.90
19755;DHT22;10036;47.812;9.274;2024-03-02T09:34:07;6.40;99.90
19755;DHT22;10036;47.812;9.274;2024-03-02T09:36:34;6.50;99.90
19755;DHT22;10036;47.812;9.274;2024-03-02T09:39:01;6.50;99.90
19755;DHT22;10036;47.812;9.274;2024-03-02T09:41:29;6.50;99.90
19755;DHT22;10036;47.812;9.274;2024-03-02T09:43:56;6.50;99.90
19755;DHT22;10036;47.812;9.274;2024-03-02T09:46:24;6.20;99.90
19755;DHT22;10036;47.812;9.274;2024-03-02T09:48:52;6.10;99.90
19755;DHT22;10036;47.812;9.274;2024-03-02T09:51:19;6.30;99.90
19755;DHT22;10036;47.812;9.274;2024-03-02T09:53:47;6.20;99.90
19755;DHT22;10036;47.812;9.274;2024-03-02T09:56:14;6.40;99.90
19755;DHT22;10036;47.812;9.274;2024-03-02T09:58:42;6.40;99.90
19755;DHT22;10036;47.812;9.274;2024-03-02T10:01:09;6.60;99.90
19755;DHT22;10036;47.812;9.274;2024-03-02T10:03:37;6.50;99.90
19755;DHT22;10036;47.812;9.274;2024-03-02T10:06:22;6.70;99.90
19755;DHT22;10036;47.812;9.274;2024-03-02T10:08:49;6.90;99.90
19755;DHT22;10036;47.812;9.274;2024-03-02T10:11:26;6.80;99.90
19755;DHT22;10036;47.812;9.274;2024-03-02T10:14:04;6.70;99.90
19755;DHT22;10036;47.812;9.274;2024-03-02T10:16:34;6.60;99.90
19755;DHT22;10036;47.812;9.274;2024-03-02T10:19:15;6.60;99.90
19755;DHT22;10036;47.812;9.274;2024-03-02T10:21:45;6.90;99.90
19755;DHT22;10036;47.812;9.274;2024-03-02T10:24:12;6.90;99.90
19755;DHT22;10036;47.812;9.274;2024-03-02T10:26:39;6.80;99.90
19755;DHT22;10036;47.812;9.274;2024-03-02T10:29:07;6.80;99.90
19755;DHT22;10036;47.812;9.274;2024-03-02T10:31:37;6.80;99.90
19755;DHT22;10036;47.812;9.274;2024-03-02T10:34:04;6.90;99.90
19755;DHT22;10036;47.812;9.274;2024-03-02T10:36:31;7.10;99.90
19755;DHT22;10036;47.812;9.274;2024-03-02T10:39:02;7.10;99.90
19755;DHT22;10036;47.812;9.274;2024-03-02T10:41:32;7.10;99.90
19755;DHT22;10036;47.812;9.274;2024-03-02T10:43:59;7.10;99.90
19755;DHT22;10036;47.812;9.274;2024-03-02T10:46:29;7.30;99.90
19755;DHT22;10036;47.812;9.274;2024-03-02T10:48:56;7.40;99.90
19755;DHT22;10036;47.812;9.274;2024-03-02T10:51:24;7.40;99.90
19755;DHT22;10036;47.812;9.274;2024-03-02T10:53:51;7.50;99.90
19755;DHT22;10036;47.812;9.274;2024-03-02T10:56:24;7.60;99.90
19755;DHT22;10036;47.812;9.274;2024-03-02T10:58:58;7.50;99.90
19755;DHT22;10036;47.812;9.274;2024-03-02T11:01:29;7.80;99.90
19755;DHT22;10036;47.812;9.274;2024-03-02T11:03:59;7.80;99.90
19755;DHT22;10036;47.812;9.274;2024-03-02T11:06:28;7.90;99.90
19755;DHT22;10036;47.812;9.274;2024-03-02T11:09:00;8.20;99.90
19755;DHT22;10036;47.812;9.274;2024-03-02T11:11:36;8.40;99.90
19755;DHT22;10036;47.812;9.274;2024-03-02T11:14:05;8.50;99.90
19755;DHT22;10036;47.812;9.274;2024-03-02T11:16:36;8.60;99.90
19755;DHT22;10036;47.812;9.274;2024-03-02T11:19:05;8.50;99.90
19755;DHT22;10036;47.812;9.274;2024-03-02T11:21:34;8.60;99.90
19755;DHT22;10036;47.812;9.274;2024-03-02T11:24:05;8.70;99.90
19755;DHT22;10036;47.812;9.274;2024-03-02T11:26:59;9.00;99.90
19755;DHT22;10036;47.812;9.274;2024-03-02T11:29:46;9.10;99.90
19755;DHT22;10036;47.812;9.274;2024-03-02T11:32:21;9.40;99.90
19755;DHT22;10036;47.812;9.274;2024-03-02T11:34:49;9.60;99.90
19755;DHT22;10036;47.812;9.274;2024-03-02T11:37:17;9.90;99.90
19755;DHT22;10036;47.812;9.274;2024-03-02T11:39:46;9.90;99.90
19755;DHT22;10036;47.812;9.274;2024-03-02T11:42:15;10.00;99.90
19755;DHT22;10036;47.812;9.274;2024-03-02T11:44:43;10.10;99.90
19755;DHT22;10036;47.812;9.274;2024-03-02T11:47:12;10.20;99.90
19755;DHT22;10036;47.812;9.274;2024-03-02T11:49:42;10.20;99.90
19755;DHT22;10036;47.812;9.274;2024-03-02T11:52:11;10.30;99.90
19755;DHT22;10036;47.812;9.274;2024-03-02T11:54:40;10.40;99.90
19755;DHT22;10036;47.812;9.274;2024-03-02T11:57:14;10.60;99.90
19755;DHT22;10036;47.812;9.274;2024-03-02T11:59:41;10.70;99.90
19755;DHT22;10036;47.812;9.274;2024-03-02T12:02:14;10.90;99.90
19755;DHT22;10036;47.812;9.274;2024-03-02T12:04:42;11.20;99.90
19755;DHT22;10036;47.812;9.274;2024-03-02T12:07:10;11.10;99.90
19755;DHT22;10036;47.812;9.274;2024-03-02T12:09:37;11.30;99.90
19755;DHT22;10036;47.812;9.274;2024-03-02T12:12:05;11.30;99.90
19755;DHT22;10036;47.812;9.274;2024-03-02T12:14:35;11.40;99.90
19755;DHT22;10036;47.812;9.274;2024-03-02T12:17:02;11.40;99.90
19755;DHT22;10036;47.812;9.274;2024-03-02T12:19:31;11.40;99.90
19755;DHT22;10036;47.812;9.274;2024-03-02T12:21:58;11.40;99.90
19755;DHT22;10036;47.812;9.274;2024-03-02T12:24:27;11.50;99.90
19755;DHT22;10036;47.812;9.274;2024-03-02T12:26:55;11.60;99.90
19755;DHT22;10036;47.812;9.274;2024-03-02T12:29:22;11.70;99.90
19755;DHT22;10036;47.812;9.274;2024-03-02T12:31:51;11.60;99.90
19755;DHT22;10036;47.812;9.274;2024-03-02T12:34:19;11.90;99.90
19755;DHT22;10036;47.812;9.274;2024-03-02T12:36:46;12.00;99.90
19755;DHT22;10036;47.812;9.274;2024-03-02T12:39:15;12.20;99.90
19755;DHT22;10036;47.812;9.274;2024-03-02T12:41:43;12.20;99.90
19755;DHT22;10036;47.812;9.274;2024-03-02T12:44:09;12.40;99.90
19755;DHT22;10036;47.812;9.274;2024-03-02T12:46:37;12.40;99.90
19755;DHT22;10036;47.812;9.274;2024-03-02T12:49:10;12.40;99.90
19755;DHT22;10036;47.812;9.274;2024-03-02T12:51:37;12.60;99.90
19755;DHT22;10036;47.812;9.274;2024-03-02T12:54:06;12.70;99.90
19755;DHT22;10036;47.812;9.274;2024-03-02T12:56:34;12.80;99.90
19755;DHT22;10036;47.812;9.274;2024-03-02T12:59:02;12.90;99.90
19755;DHT22;10036;47.812;9.274;2024-03-02T13:01:29;12.80;99.90
19755;DHT22;10036;47.812;9.274;2024-03-02T13:03:58;12.80;99.90
19755;DHT22;10036;47.812;9.274;2024-03-02T13:06:27;12.90;99.90
19755;DHT22;10036;47.812;9.274;2024-03-02T13:08:55;12.90;99.90
19755;DHT22;10036;47.812;9.274;2024-03-02T13:11:22;12.90;99.90
19755;DHT22;10036;47.812;9.274;2024-03-02T13:13:50;13.00;99.90
19755;DHT22;10036;47.812;9.274;2024-03-02T13:16:18;13.00;99.90
19755;DHT22;10036;47.812;9.274;2024-03-02T13:18:45;12.90;99.90
19755;DHT22;10036;47.812;9.274;2024-03-02T13:21:13;12.90;99.90
19755;DHT22;10036;47.812;9.274;2024-03-02T13:23:41;13.10;99.90
19755;DHT22;10036;47.812;9.274;2024-03-02T13:26:08;13.20;99.90
19755;DHT22;10036;47.812;9.274;2024-03-02T13:28:36;13.20;99.90
19755;DHT22;10036;47.812;9.274;2024-03-02T13:31:04;13.20;99.90
19755;DHT22;10036;47.812;9.274;2024-03-02T13:33:32;13.20;99.90
19755;DHT22;10036;47.812;9.274;2024-03-02T13:35:59;13.20;99.90
19755;DHT22;10036;47.812;9.274;2024-03-02T13:38:27;13.30;99.90
19755;DHT22;10036;47.812;9.274;2024-03-02T13:40:55;13.40;99.90
19755;DHT22;10036;47.812;9.274;2024-03-02T13:43:22;13.30;99.90
19755;DHT22;10036;47.812;9.274;2024-03-02T13:45:50;13.50;99.90
19755;DHT22;10036;47.812;9.274;2024-03-02T13:48:19;13.50;99.90
19755;DHT22;10036;47.812;9.274;2024-03-02T13:50:46;13.60;99.90
19755;DHT22;10036;47.812;9.274;2024-03-02T13:53:13;13.80;99.90
19755;DHT22;10036;47.812;9.274;2024-03-02T13:55:40;13.80;99.90
19755;DHT22;10036;47.812;9.274;2024-03-02T13:58:09;13.90;99.90
19755;DHT22;10036;47.812;9.274;2024-03-02T14:00:36;13.90;99.90
19755;DHT22;10036;47.812;9.274;2024-03-02T14:03:03;13.90;99.90
19755;DHT22;10036;47.812;9.274;2024-03-02T14:05:30;14.00;99.90
19755;DHT22;10036;47.812;9.274;2024-03-02T14:07:57;14.00;99.90
19755;DHT22;10036;47.812;9.274;2024-03-02T14:10:26;14.20;99.90
19755;DHT22;10036;47.812;9.274;2024-03-02T14:12:53;14.30;99.90
19755;DHT22;10036;47.812;9.274;2024-03-02T14:15:22;14.10;99.90
19755;DHT22;10036;47.812;9.274;2024-03-02T14:17:49;14.20;99.90
19755;DHT22;10036;47.812;9.274;2024-03-02T14:20:17;14.30;99.90
19755;DHT22;10036;47.812;9.274;2024-03-02T14:22:47;14.20;99.90
19755;DHT22;10036;47.812;9.274;2024-03-02T14:25:14;14.10;99.90
19755;DHT22;10036;47.812;9.274;2024-03-02T14:27:40;14.20;99.90
19755;DHT22;10036;47.812;9.274;2024-03-02T14:30:08;14.20;99.90
19755;DHT22;10036;47.812;9.274;2024-03-02T14:32:37;14.30;99.90
19755;DHT22;10036;47.812;9.274;2024-03-02T14:35:04;14.20;99.90
19755;DHT22;10036;47.812;9.274;2024-03-02T14:37:31;14.10;99.90
19755;DHT22;10036;47.812;9.274;2024-03-02T14:39:58;14.00;99.90
19755;DHT22;10036;47.812;9.274;2024-03-02T14:42:25;13.80;99.90
19755;DHT22;10036;47.812;9.274;2024-03-02T14:44:57;13.60;99.90
19755;DHT22;10036;47.812;9.274;2024-03-02T14:47:24;13.60;99.90
19755;DHT22;10036;47.812;9.274;2024-03-02T14:49:52;13.60;99.90
19755;DHT22;10036;47.812;9.274;2024-03-02T14:52:19;13.60;99.90
19755;DHT22;10036;47.812;9.274;2024-03-02T14:54:46;13.50;99.90
19755;DHT22;10036;47.812;9.274;2024-03-02T14:57:13;13.60;99.90
19755;DHT22;10036;47.812;9.274;2024-03-02T14:59:40;13.60;99.90
19755;DHT22;10036;47.812;9.274;2024-03-02T15:02:08;13.70;99.90
19755;DHT22;10036;47.812;9.274;2024-03-02T15:04:35;13.70;99.90
19755;DHT22;10036;47.812;9.274;2024-03-02T15:07:04;13.70;99.90
19755;DHT22;10036;47.812;9.274;2024-03-02T15:09:31;13.60;99.90
19755;DHT22;10036;47.812;9.274;2024-03-02T15:12:00;13.50;99.90
19755;DHT22;10036;47.812;9.274;2024-03-02T15:14:27;13.40;99.90
19755;DHT22;10036;47.812;9.274;2024-03-02T15:16:55;13.50;99.90
19755;DHT22;10036;47.812;9.274;2024-03-02T15:19:22;13.50;99.90
19755;DHT22;10036;47.812;9.274;2024-03-02T15:21:49;13.40;99.90
19755;DHT22;10036;47.812;9.274;2024-03-02T15:24:18;13.30;99.90
19755;DHT22;10036;47.812;9.274;2024-03-02T15:26:45;13.20;99.90
19755;DHT22;10036;47.812;9.274;2024-03-02T15:29:12;13.00;99.90
19755;DHT22;10036;47.812;9.274;2024-03-02T15:31:39;13.00;99.90
19755;DHT22;10036;47.812;9.274;2024-03-02T15:34:05;13.00;99.90
19755;DHT22;10036;47.812;9.274;2024-03-02T15:36:33;12.90;99.90
19755;DHT22;10036;47.812;9.274;2024-03-02T15:39:01;12.90;99.90
19755;DHT22;10036;47.812;9.274;2024-03-02T15:41:35;12.90;99.90
19755;DHT22;10036;47.812;9.274;2024-03-02T15:44:02;12.90;99.90
19755;DHT22;10036;47.812;9.274;2024-03-02T15:46:29;12.80;99.90